METAR Data
IDs: Format: Raw Decoded Include TAF

Data at: 2202 UTC 29 May 2020

METAR for:KCAV (Clarion Muni, IA, US)
Text:KCAV 292155Z AUTO 32012G20KT 10SM CLR 21/07 A3014 RMK A01
Temperature: 21.0°C ( 70°F)
Dewpoint: 7.0°C ( 45°F) [RH = 40%]
Pressure (altimeter):30.14 inches Hg (1020.7 mb)
Winds:from the NW (320 degrees) at 14 MPH (12 knots; 6.2 m/s) gusting to 23 MPH (20 knots; 10.3 m/s)
Visibility:10 or more sm (16+ km)
Ceiling:at least 12,000 feet AGL
Clouds:sky clear below 12,000 feet AGL
QC Flag:automated observation with no human augmentation